createdAt,value
2023-02-21T05:17:35.877Z,6.41
2023-02-21T05:20:03.416Z,6.43
2023-02-21T05:22:31.353Z,6.44
2023-02-21T05:24:59.163Z,6.41
2023-02-21T05:27:26.615Z,6.46
2023-02-21T05:29:54.716Z,6.49
2023-02-21T05:32:23.795Z,6.47
2023-02-21T05:34:51.335Z,6.49
2023-02-21T05:37:21.651Z,6.40
2023-02-21T05:39:50.371Z,6.37
2023-02-21T05:42:18.145Z,6.38
2023-02-21T05:44:47.105Z,6.40
2023-02-21T05:47:16.207Z,6.38
2023-02-21T05:49:44.874Z,6.40
2023-02-21T05:52:15.610Z,6.37
2023-02-21T05:54:43.913Z,6.31
2023-02-21T05:57:11.917Z,6.30
2023-02-21T05:59:40.195Z,6.24
2023-02-21T06:02:07.871Z,6.08
2023-02-21T06:04:35.488Z,5.99
2023-02-21T06:07:02.842Z,5.87
2023-02-21T06:09:31.671Z,5.81
2023-02-21T06:11:59.561Z,5.76
2023-02-21T06:14:27.509Z,5.76
2023-02-21T06:16:54.946Z,5.68
2023-02-21T06:19:22.520Z,5.67
2023-02-21T06:21:52.579Z,5.54
2023-02-21T06:24:20.375Z,5.35
2023-02-21T06:26:49.781Z,5.31
2023-02-21T06:29:17.446Z,5.31
2023-02-21T06:31:46.083Z,5.27
2023-02-21T06:34:14.484Z,5.33
2023-02-21T06:36:42.114Z,5.31
2023-02-21T06:39:12.951Z,5.29
2023-02-21T06:41:40.814Z,5.32
2023-02-21T06:44:08.871Z,5.32
2023-02-21T06:46:38.496Z,5.37
2023-02-21T06:49:06.182Z,5.50
2023-02-21T06:51:38.167Z,5.58
2023-02-21T06:54:06.480Z,5.59
2023-02-21T06:56:34.750Z,5.59
2023-02-21T06:59:02.809Z,5.62
2023-02-21T07:01:31.243Z,5.71
2023-02-21T07:03:59.645Z,5.76
2023-02-21T07:06:29.717Z,5.94
2023-02-21T07:08:58.069Z,6.07
2023-02-21T07:11:25.613Z,6.19
2023-02-21T07:13:54.821Z,6.44
2023-02-21T07:16:22.945Z,6.61
2023-02-21T07:18:50.827Z,6.83
2023-02-21T07:21:20.435Z,7.20
2023-02-21T07:23:49.116Z,7.37
2023-02-21T07:26:16.649Z,7.76
2023-02-21T07:28:44.203Z,8.10
2023-02-21T07:31:11.829Z,8.48
2023-02-21T07:33:40.198Z,8.74
2023-02-21T07:36:07.913Z,8.39
2023-02-21T07:38:36.866Z,7.98
2023-02-21T07:41:04.879Z,8.00
2023-02-21T07:43:32.592Z,8.28
2023-02-21T07:46:00.411Z,8.85
2023-02-21T07:48:29.008Z,9.44
2023-02-21T07:50:56.766Z,9.81
2023-02-21T07:53:28.642Z,10.03
2023-02-21T07:55:56.202Z,10.19
2023-02-21T07:58:23.844Z,10.47
2023-02-21T08:00:51.680Z,10.59
2023-02-21T08:03:21.709Z,10.96
2023-02-21T08:05:49.520Z,11.09
2023-02-21T08:08:17.868Z,11.33
2023-02-21T08:10:45.392Z,11.47
2023-02-21T08:13:13.096Z,11.72
2023-02-21T08:15:40.716Z,11.55
2023-02-21T08:18:19.235Z,11.56
2023-02-21T08:20:47.855Z,11.66
2023-02-21T08:23:15.602Z,12.44
2023-02-21T08:25:47.616Z,12.63
2023-02-21T08:28:16.484Z,12.87
2023-02-21T08:30:44.481Z,12.72
2023-02-21T08:33:12.362Z,13.10
2023-02-21T08:35:40.181Z,12.74
2023-02-21T08:38:09.320Z,13.38
2023-02-21T08:40:38.195Z,12.39
2023-02-21T08:43:06.405Z,11.75
2023-02-21T08:45:34.446Z,11.98
2023-02-21T08:48:02.531Z,11.35
2023-02-21T08:50:30.711Z,11.37
2023-02-21T08:52:58.358Z,11.61
2023-02-21T08:55:26.104Z,12.15
2023-02-21T08:57:55.150Z,10.88
2023-02-21T09:00:24.736Z,12.00
2023-02-21T09:02:52.987Z,12.88
2023-02-21T09:05:27.609Z,13.40
2023-02-21T09:07:59.474Z,14.20
2023-02-21T09:10:32.336Z,13.34
2023-02-21T09:13:00.586Z,12.67
2023-02-21T09:15:28.262Z,12.87
2023-02-21T09:17:56.455Z,11.93
2023-02-21T09:20:26.931Z,12.82
2023-02-21T09:22:54.929Z,13.78
2023-02-21T09:25:25.104Z,13.36
2023-02-21T09:27:55.001Z,13.69
2023-02-21T09:30:27.372Z,13.31
2023-02-21T09:32:55.374Z,14.07
2023-02-21T09:35:23.718Z,14.16
2023-02-21T09:37:51.984Z,14.40
2023-02-21T09:40:28.315Z,14.87
2023-02-21T09:43:00.366Z,14.06
2023-02-21T09:45:37.044Z,14.85
2023-02-21T09:48:24.285Z,14.91
2023-02-21T09:50:59.292Z,14.72
2023-02-21T09:53:31.433Z,14.09
2023-02-21T09:56:08.149Z,14.65
2023-02-21T09:58:39.601Z,15.25
2023-02-21T10:01:19.527Z,14.90
2023-02-21T10:03:52.570Z,13.79
2023-02-21T10:06:43.612Z,13.73
2023-02-21T10:09:14.427Z,13.98
2023-02-21T10:12:00.341Z,13.59
2023-02-21T10:14:35.883Z,13.75
2023-02-21T10:17:29.392Z,13.59
2023-02-21T10:20:02.826Z,14.62
2023-02-21T10:22:35.747Z,14.13
2023-02-21T10:25:21.242Z,14.57
2023-02-21T10:27:51.263Z,14.11
2023-02-21T10:30:46.006Z,15.31
2023-02-21T10:33:13.934Z,14.88
2023-02-21T10:35:41.662Z,15.39
2023-02-21T10:38:16.832Z,15.40
2023-02-21T10:40:51.889Z,15.86
2023-02-21T10:43:44.315Z,15.98
2023-02-21T10:46:26.207Z,16.04
2023-02-21T10:49:00.108Z,14.49
2023-02-21T10:51:35.836Z,16.19
2023-02-21T10:54:24.614Z,16.21
2023-02-21T10:56:54.620Z,16.13
2023-02-21T10:59:33.371Z,15.46
2023-02-21T11:02:10.599Z,15.01
2023-02-21T11:04:41.445Z,15.60
2023-02-21T11:07:12.487Z,15.46
2023-02-21T11:09:45.625Z,15.10
2023-02-21T11:12:25.702Z,15.74
2023-02-21T11:14:53.155Z,14.93
2023-02-21T11:17:32.950Z,15.51
2023-02-21T11:20:08.303Z,15.25
2023-02-21T11:22:37.640Z,14.32
2023-02-21T11:25:19.244Z,14.33
2023-02-21T11:28:04.295Z,15.69
2023-02-21T11:30:48.104Z,16.38
2023-02-21T11:33:22.667Z,15.72
2023-02-21T11:35:53.110Z,16.32
2023-02-21T11:38:42.089Z,15.46
2023-02-21T11:41:22.380Z,14.45
2023-02-21T11:43:55.609Z,15.23
2023-02-21T11:46:47.371Z,15.68
2023-02-21T11:49:15.304Z,15.14
2023-02-21T11:51:58.415Z,15.17
2023-02-21T11:54:31.031Z,14.72
2023-02-21T11:57:37.438Z,14.71
2023-02-21T12:00:15.673Z,15.07
2023-02-21T12:12:02.638Z,15.65
2023-02-21T16:09:42.855Z,15.82
2023-02-21T16:12:12.935Z,15.69
2023-02-21T16:14:55.379Z,15.61
2023-02-21T16:17:41.882Z,15.72
2023-02-21T16:20:18.148Z,15.57
2023-02-21T16:25:36.293Z,15.82
2023-02-21T16:28:12.109Z,15.80
2023-02-21T16:30:39.636Z,15.63
2023-02-21T16:33:06.911Z,15.63
2023-02-21T16:35:34.555Z,15.47
2023-02-21T18:02:05.019Z,11.51
2023-02-21T18:04:32.265Z,11.54
2023-02-21T18:06:59.562Z,11.46
2023-02-21T18:09:26.818Z,11.30
2023-02-21T18:11:55.318Z,11.15
2023-02-21T18:14:26.173Z,11.08
2023-02-21T18:16:56.451Z,10.91
2023-02-21T18:19:26.243Z,10.85
2023-02-21T18:21:53.407Z,10.81
2023-02-21T18:24:21.659Z,10.53
2023-02-21T18:26:48.629Z,10.51
2023-02-21T18:29:15.345Z,10.56
2023-02-21T18:31:42.116Z,10.58
2023-02-21T18:34:09.190Z,10.56
2023-02-21T18:36:35.757Z,10.42
2023-02-21T18:39:02.675Z,10.25
2023-02-21T18:41:33.445Z,10.18
2023-02-21T18:44:00.080Z,10.11
2023-02-21T18:46:27.119Z,10.14
2023-02-21T18:48:53.943Z,10.18
2023-02-21T18:51:21.137Z,10.15
2023-02-21T18:53:49.414Z,9.98
2023-02-21T18:56:19.471Z,9.98
2023-02-21T18:58:51.362Z,9.99
2023-02-21T19:01:22.132Z,9.98
2023-02-21T19:03:54.751Z,9.88
2023-02-21T19:06:23.251Z,9.88
2023-02-21T19:08:56.858Z,9.71
2023-02-21T19:11:24.239Z,9.60
2023-02-21T19:13:51.180Z,9.59
2023-02-21T19:16:19.978Z,9.53
2023-02-21T19:18:47.690Z,9.56
2023-02-21T19:21:17.240Z,9.39
2023-02-21T19:23:45.004Z,9.22
2023-02-21T19:26:11.638Z,9.19
2023-02-21T19:28:42.972Z,9.19
2023-02-21T19:31:15.160Z,9.23
2023-02-21T19:33:43.615Z,9.22
2023-02-21T19:36:14.370Z,9.23
2023-02-21T19:38:44.403Z,9.01
2023-02-21T19:41:14.345Z,9.03
2023-02-21T19:43:54.640Z,8.96
2023-02-21T19:46:25.104Z,8.83
2023-02-21T19:48:54.818Z,8.74
2023-02-21T19:51:23.206Z,8.73
2023-02-21T19:53:50.253Z,8.74
2023-02-21T19:56:19.661Z,8.70
2023-02-21T19:58:47.532Z,8.66
2023-02-21T20:01:16.727Z,8.67
2023-02-21T20:03:47.415Z,8.66
2023-02-21T20:06:17.118Z,8.65
2023-02-21T20:08:49.226Z,8.54
2023-02-21T20:11:18.601Z,8.39
2023-02-21T20:13:47.198Z,8.44
2023-02-21T20:16:24.931Z,8.46
2023-02-21T20:18:55.363Z,8.43
2023-02-21T20:21:27.599Z,8.36
2023-02-21T20:23:58.756Z,8.37
2023-02-21T20:26:31.164Z,8.29
2023-02-21T20:28:59.914Z,8.18
2023-02-21T20:31:31.100Z,8.12
2023-02-21T20:34:03.371Z,8.19
2023-02-21T20:36:35.295Z,8.19
2023-02-21T20:39:05.272Z,8.11
2023-02-21T20:41:36.059Z,8.02
2023-02-21T20:44:04.100Z,7.97
2023-02-21T20:46:34.767Z,7.90
2023-02-21T20:49:03.607Z,7.87
2023-02-21T20:51:35.449Z,7.84
2023-02-21T20:54:05.733Z,7.77
2023-02-21T20:56:40.833Z,7.69
2023-02-21T20:59:15.884Z,7.65
2023-02-21T21:01:49.704Z,7.60
2023-02-21T21:04:19.350Z,7.59
2023-02-21T21:06:47.636Z,7.66
2023-02-21T21:09:18.096Z,7.49
2023-02-21T21:11:45.812Z,7.44
2023-02-21T21:14:16.334Z,7.30
2023-02-21T21:16:43.646Z,7.31
2023-02-21T21:19:12.817Z,7.33
2023-02-21T21:21:40.201Z,7.25
2023-02-21T21:24:07.324Z,7.19
2023-02-21T21:26:34.397Z,7.17
2023-02-21T21:29:02.084Z,7.11
2023-02-21T21:31:28.865Z,7.13
2023-02-21T21:33:56.501Z,7.07
2023-02-21T21:36:23.397Z,7.11
2023-02-21T21:38:50.025Z,7.09
2023-02-21T21:41:17.025Z,7.09
2023-02-21T21:43:45.378Z,7.07
2023-02-21T21:46:13.748Z,7.15
2023-02-21T21:48:44.198Z,7.04
2023-02-21T21:51:11.694Z,6.99
2023-02-21T21:53:41.765Z,6.98
2023-02-21T21:56:08.576Z,6.88
2023-02-21T21:58:38.347Z,6.91
2023-02-21T22:01:08.273Z,7.08
2023-02-21T22:03:34.965Z,6.97
2023-02-21T22:06:01.761Z,6.84
2023-02-21T22:08:29.423Z,6.80
2023-02-21T22:10:56.103Z,6.71
2023-02-21T22:13:29.239Z,6.88
2023-02-21T22:15:59.077Z,6.75
2023-02-21T22:18:25.798Z,6.64
2023-02-21T22:20:52.516Z,6.61
2023-02-21T22:23:21.361Z,6.63
2023-02-21T22:25:48.433Z,6.64
2023-02-21T22:28:15.218Z,6.52
2023-02-21T22:30:42.224Z,6.53
2023-02-21T22:33:14.323Z,6.49
2023-02-21T22:35:41.531Z,6.81
2023-02-21T22:38:14.144Z,6.69
2023-02-21T22:40:41.499Z,6.54
2023-02-21T22:43:09.088Z,6.47
2023-02-21T22:45:36.739Z,6.38
2023-02-21T22:48:05.928Z,6.31
2023-02-21T22:50:39.660Z,6.21
2023-02-21T22:53:08.378Z,6.25
2023-02-21T22:55:37.388Z,6.19
2023-02-21T22:58:07.737Z,6.06
2023-02-21T23:00:36.166Z,6.06
2023-02-21T23:03:14.718Z,6.05
2023-02-21T23:05:46.706Z,6.08
2023-02-21T23:08:15.954Z,6.05
2023-02-21T23:10:43.187Z,5.89
2023-02-21T23:13:14.275Z,5.91
2023-02-21T23:15:42.217Z,5.86
2023-02-21T23:18:09.930Z,5.85
2023-02-21T23:20:36.702Z,5.84
2023-02-21T23:23:04.212Z,5.83
2023-02-21T23:25:37.089Z,5.75
2023-02-21T23:28:13.489Z,5.85
2023-02-21T23:30:41.595Z,5.73
2023-02-21T23:33:09.508Z,5.67
2023-02-21T23:35:36.423Z,5.65
2023-02-21T23:38:03.457Z,5.67
2023-02-21T23:40:39.263Z,5.66
2023-02-21T23:43:10.130Z,6.00
2023-02-21T23:45:41.393Z,6.14
2023-02-21T23:48:10.585Z,6.07
2023-02-21T23:50:37.691Z,6.08
2023-02-21T23:53:05.812Z,5.88
2023-02-21T23:55:35.846Z,5.87
2023-02-21T23:58:09.022Z,6.13
